sensor_id;sensor_type;location;lat;lon;timestamp;temperature;humidity
33673;DHT22;20011;51.510;9.942;2024-03-07T00:01:21;6.60;99.90
33673;DHT22;20011;51.510;9.942;2024-03-07T00:03:48;6.50;99.90
33673;DHT22;20011;51.510;9.942;2024-03-07T00:06:16;6.50;99.90
33673;DHT22;20011;51.510;9.942;2024-03-07T00:08:44;6.50;99.90
33673;DHT22;20011;51.510;9.942;2024-03-07T00:11:11;6.30;99.90
33673;DHT22;20011;51.510;9.942;2024-03-07T00:13:38;6.20;99.90
33673;DHT22;20011;51.510;9.942;2024-03-07T00:16:05;6.30;99.90
33673;DHT22;20011;51.510;9.942;2024-03-07T00:18:33;6.10;99.90
33673;DHT22;20011;51.510;9.942;2024-03-07T00:21:01;6.10;99.90
33673;DHT22;20011;51.510;9.942;2024-03-07T00:23:28;6.00;99.90
33673;DHT22;20011;51.510;9.942;2024-03-07T00:25:55;6.10;99.90
33673;DHT22;20011;51.510;9.942;2024-03-07T00:28:22;6.20;99.90
33673;DHT22;20011;51.510;9.942;2024-03-07T00:30:50;6.30;99.90
33673;DHT22;20011;51.510;9.942;2024-03-07T00:33:17;6.20;99.90
33673;DHT22;20011;51.510;9.942;2024-03-07T00:35:45;6.20;99.90
33673;DHT22;20011;51.510;9.942;2024-03-07T00:38:12;6.20;99.90
33673;DHT22;20011;51.510;9.942;2024-03-07T00:40:39;6.30;99.90
33673;DHT22;20011;51.510;9.942;2024-03-07T00:43:05;6.30;99.90
33673;DHT22;20011;51.510;9.942;2024-03-07T00:45:33;6.30;99.90
33673;DHT22;20011;51.510;9.942;2024-03-07T00:48:00;6.10;99.90
33673;DHT22;20011;51.510;9.942;2024-03-07T00:50:28;6.10;99.90
33673;DHT22;20011;51.510;9.942;2024-03-07T00:52:55;6.10;99.90
33673;DHT22;20011;51.510;9.942;2024-03-07T00:55:22;6.00;99.90
33673;DHT22;20011;51.510;9.942;2024-03-07T00:57:49;5.80;99.90
33673;DHT22;20011;51.510;9.942;2024-03-07T01:00:16;5.70;99.90
33673;DHT22;20011;51.510;9.942;2024-03-07T01:02:47;5.70;99.90
33673;DHT22;20011;51.510;9.942;2024-03-07T01:05:14;5.70;99.90
33673;DHT22;20011;51.510;9.942;2024-03-07T01:07:41;5.90;99.90
33673;DHT22;20011;51.510;9.942;2024-03-07T01:10:10;5.90;99.90
33673;DHT22;20011;51.510;9.942;2024-03-07T01:12:37;5.70;99.90
33673;DHT22;20011;51.510;9.942;2024-03-07T01:15:04;5.70;99.90
33673;DHT22;20011;51.510;9.942;2024-03-07T01:17:32;5.50;99.90
33673;DHT22;20011;51.510;9.942;2024-03-07T01:19:59;5.50;99.90
33673;DHT22;20011;51.510;9.942;2024-03-07T01:22:26;5.40;99.90
33673;DHT22;20011;51.510;9.942;2024-03-07T01:24:53;5.40;99.90
33673;DHT22;20011;51.510;9.942;2024-03-07T01:27:20;5.30;99.90
33673;DHT22;20011;51.510;9.942;2024-03-07T01:29:47;5.20;99.90
33673;DHT22;20011;51.510;9.942;2024-03-07T01:32:15;5.40;99.90
33673;DHT22;20011;51.510;9.942;2024-03-07T01:34:42;5.50;99.90
33673;DHT22;20011;51.510;9.942;2024-03-07T01:37:09;5.50;99.90
33673;DHT22;20011;51.510;9.942;2024-03-07T01:39:37;5.60;99.90
33673;DHT22;20011;51.510;9.942;2024-03-07T01:42:04;5.70;99.90
33673;DHT22;20011;51.510;9.942;2024-03-07T01:44:32;5.70;99.90
33673;DHT22;20011;51.510;9.942;2024-03-07T01:46:59;5.80;99.90
33673;DHT22;20011;51.510;9.942;2024-03-07T01:49:30;5.60;99.90
33673;DHT22;20011;51.510;9.942;2024-03-07T01:51:58;5.80;99.90
33673;DHT22;20011;51.510;9.942;2024-03-07T01:54:26;5.80;99.90
33673;DHT22;20011;51.510;9.942;2024-03-07T01:56:55;5.70;99.90
33673;DHT22;20011;51.510;9.942;2024-03-07T01:59:22;5.60;99.90
33673;DHT22;20011;51.510;9.942;2024-03-07T02:01:51;5.70;99.90
33673;DHT22;20011;51.510;9.942;2024-03-07T02:04:18;5.60;99.90
33673;DHT22;20011;51.510;9.942;2024-03-07T02:06:45;5.60;99.90
33673;DHT22;20011;51.510;9.942;2024-03-07T02:09:12;5.70;99.90
33673;DHT22;20011;51.510;9.942;2024-03-07T02:11:41;5.60;99.90
33673;DHT22;20011;51.510;9.942;2024-03-07T02:14:08;5.60;99.90
33673;DHT22;20011;51.510;9.942;2024-03-07T02:16:35;5.60;99.90
33673;DHT22;20011;51.510;9.942;2024-03-07T02:19:02;5.60;99.90
33673;DHT22;20011;51.510;9.942;2024-03-07T02:21:29;5.80;99.90
33673;DHT22;20011;51.510;9.942;2024-03-07T02:23:56;5.80;99.90
33673;DHT22;20011;51.510;9.942;2024-03-07T02:26:23;5.70;99.90
33673;DHT22;20011;51.510;9.942;2024-03-07T02:28:50;5.80;99.90
33673;DHT22;20011;51.510;9.942;2024-03-07T02:31:17;5.80;99.90
33673;DHT22;20011;51.510;9.942;2024-03-07T02:33:46;5.80;99.90
33673;DHT22;20011;51.510;9.942;2024-03-07T02:36:13;5.80;99.90
33673;DHT22;20011;51.510;9.942;2024-03-07T02:38:40;5.90;99.90
33673;DHT22;20011;51.510;9.942;2024-03-07T02:41:07;5.90;99.90
33673;DHT22;20011;51.510;9.942;2024-03-07T02:43:34;5.90;99.90
33673;DHT22;20011;51.510;9.942;2024-03-07T02:46:04;5.80;99.90
33673;DHT22;20011;51.510;9.942;2024-03-07T02:48:31;6.00;99.90
33673;DHT22;20011;51.510;9.942;2024-03-07T02:50:58;6.00;99.90
33673;DHT22;20011;51.510;9.942;2024-03-07T02:53:25;6.10;99.90
33673;DHT22;20011;51.510;9.942;2024-03-07T02:55:52;6.20;99.90
33673;DHT22;20011;51.510;9.942;2024-03-07T02:58:19;6.10;99.90
33673;DHT22;20011;51.510;9.942;2024-03-07T03:00:47;5.90;99.90
33673;DHT22;20011;51.510;9.942;2024-03-07T03:03:16;5.90;99.90
33673;DHT22;20011;51.510;9.942;2024-03-07T03:05:43;5.90;99.90
33673;DHT22;20011;51.510;9.942;2024-03-07T03:08:10;6.00;99.90
33673;DHT22;20011;51.510;9.942;2024-03-07T03:10:37;6.10;99.90
33673;DHT22;20011;51.510;9.942;2024-03-07T03:13:04;6.20;99.90
33673;DHT22;20011;51.510;9.942;2024-03-07T03:15:31;6.20;99.90
33673;DHT22;20011;51.510;9.942;2024-03-07T03:17:58;6.10;99.90
33673;DHT22;20011;51.510;9.942;2024-03-07T03:20:28;6.00;99.90
33673;DHT22;20011;51.510;9.942;2024-03-07T03:23:02;6.10;99.90
33673;DHT22;20011;51.510;9.942;2024-03-07T03:25:45;6.20;99.90
33673;DHT22;20011;51.510;9.942;2024-03-07T03:28:15;6.20;99.90
33673;DHT22;20011;51.510;9.942;2024-03-07T03:30:44;6.20;99.90
33673;DHT22;20011;51.510;9.942;2024-03-07T03:33:11;6.10;99.90
33673;DHT22;20011;51.510;9.942;2024-03-07T03:35:39;6.10;99.90
33673;DHT22;20011;51.510;9.942;2024-03-07T03:38:07;6.20;99.90
33673;DHT22;20011;51.510;9.942;2024-03-07T03:40:35;6.30;99.90
33673;DHT22;20011;51.510;9.942;2024-03-07T03:43:02;6.10;99.90
33673;DHT22;20011;51.510;9.942;2024-03-07T03:45:30;6.10;99.90
33673;DHT22;20011;51.510;9.942;2024-03-07T03:47:59;6.10;99.90
33673;DHT22;20011;51.510;9.942;2024-03-07T03:50:26;6.10;99.90
33673;DHT22;20011;51.510;9.942;2024-03-07T03:52:53;6.20;99.90
33673;DHT22;20011;51.510;9.942;2024-03-07T03:55:20;6.20;99.90
33673;DHT22;20011;51.510;9.942;2024-03-07T03:57:48;6.20;99.90
33673;DHT22;20011;51.510;9.942;2024-03-07T04:00:16;6.30;99.90
33673;DHT22;20011;51.510;9.942;2024-03-07T04:02:47;6.40;99.90
33673;DHT22;20011;51.510;9.942;2024-03-07T04:05:17;6.30;99.90
33673;DHT22;20011;51.510;9.942;2024-03-07T04:07:45;6.20;99.90
33673;DHT22;20011;51.510;9.942;2024-03-07T04:10:12;6.20;99.90
33673;DHT22;20011;51.510;9.942;2024-03-07T04:12:40;6.10;99.90
33673;DHT22;20011;51.510;9.942;2024-03-07T04:15:10;6.10;99.90
33673;DHT22;20011;51.510;9.942;2024-03-07T04:17:38;6.10;99.90
33673;DHT22;20011;51.510;9.942;2024-03-07T04:20:06;6.20;99.90
33673;DHT22;20011;51.510;9.942;2024-03-07T04:22:34;6.30;99.90
33673;DHT22;20011;51.510;9.942;2024-03-07T04:25:02;6.30;99.90
33673;DHT22;20011;51.510;9.942;2024-03-07T04:27:29;6.20;99.90
33673;DHT22;20011;51.510;9.942;2024-03-07T04:29:57;6.40;99.90
33673;DHT22;20011;51.510;9.942;2024-03-07T04:32:24;6.20;99.90
33673;DHT22;20011;51.510;9.942;2024-03-07T04:34:51;6.30;99.90
33673;DHT22;20011;51.510;9.942;2024-03-07T04:37:18;6.30;99.90
33673;DHT22;20011;51.510;9.942;2024-03-07T04:39:45;6.40;99.90
33673;DHT22;20011;51.510;9.942;2024-03-07T04:42:12;6.30;99.90
33673;DHT22;20011;51.510;9.942;2024-03-07T04:44:39;6.30;99.90
33673;DHT22;20011;51.510;9.942;2024-03-07T04:47:06;6.40;99.90
33673;DHT22;20011;51.510;9.942;2024-03-07T04:49:34;6.40;99.90
33673;DHT22;20011;51.510;9.942;2024-03-07T04:52:02;6.50;99.90
33673;DHT22;20011;51.510;9.942;2024-03-07T04:54:30;6.50;99.90
33673;DHT22;20011;51.510;9.942;2024-03-07T04:56:58;6.50;99.90
33673;DHT22;20011;51.510;9.942;2024-03-07T04:59:26;6.40;99.90
33673;DHT22;20011;51.510;9.942;2024-03-07T05:01:53;6.40;99.90
33673;DHT22;20011;51.510;9.942;2024-03-07T05:04:20;6.50;99.90
33673;DHT22;20011;51.510;9.942;2024-03-07T05:06:47;6.40;99.90
33673;DHT22;20011;51.510;9.942;2024-03-07T05:09:14;6.40;99.90
33673;DHT22;20011;51.510;9.942;2024-03-07T05:11:53;6.50;99.90
33673;DHT22;20011;51.510;9.942;2024-03-07T05:14:21;6.50;99.90
33673;DHT22;20011;51.510;9.942;2024-03-07T05:16:54;6.50;99.90
33673;DHT22;20011;51.510;9.942;2024-03-07T05:19:35;6.50;99.90
33673;DHT22;20011;51.510;9.942;2024-03-07T05:22:03;6.70;99.90
33673;DHT22;20011;51.510;9.942;2024-03-07T05:24:33;6.60;99.90
33673;DHT22;20011;51.510;9.942;2024-03-07T05:27:01;6.70;99.90
33673;DHT22;20011;51.510;9.942;2024-03-07T05:29:28;6.60;99.90
33673;DHT22;20011;51.510;9.942;2024-03-07T05:31:55;6.60;99.90
33673;DHT22;20011;51.510;9.942;2024-03-07T05:34:42;6.60;99.90
33673;DHT22;20011;51.510;9.942;2024-03-07T05:37:10;6.60;99.90
33673;DHT22;20011;51.510;9.942;2024-03-07T05:39:37;6.60;99.90
33673;DHT22;20011;51.510;9.942;2024-03-07T05:42:04;6.60;99.90
33673;DHT22;20011;51.510;9.942;2024-03-07T05:44:31;6.60;99.90
33673;DHT22;20011;51.510;9.942;2024-03-07T05:46:58;6.50;99.90
33673;DHT22;20011;51.510;9.942;2024-03-07T05:49:25;6.50;99.90
33673;DHT22;20011;51.510;9.942;2024-03-07T05:51:52;6.50;99.90
33673;DHT22;20011;51.510;9.942;2024-03-07T05:54:19;6.50;99.90
33673;DHT22;20011;51.510;9.942;2024-03-07T05:56:46;6.50;99.90
33673;DHT22;20011;51.510;9.942;2024-03-07T05:59:13;6.60;99.90
33673;DHT22;20011;51.510;9.942;2024-03-07T06:01:40;6.50;99.90
33673;DHT22;20011;51.510;9.942;2024-03-07T06:04:07;6.50;99.90
33673;DHT22;20011;51.510;9.942;2024-03-07T06:06:37;6.30;99.90
33673;DHT22;20011;51.510;9.942;2024-03-07T06:09:07;6.20;99.90
33673;DHT22;20011;51.510;9.942;2024-03-07T06:11:38;6.30;99.90
33673;DHT22;20011;51.510;9.942;2024-03-07T06:14:06;6.40;99.90
33673;DHT22;20011;51.510;9.942;2024-03-07T06:16:35;6.40;99.90
33673;DHT22;20011;51.510;9.942;2024-03-07T06:19:03;6.50;99.90
33673;DHT22;20011;51.510;9.942;2024-03-07T06:21:34;6.50;99.90
33673;DHT22;20011;51.510;9.942;2024-03-07T06:24:02;6.40;99.90
33673;DHT22;20011;51.510;9.942;2024-03-07T06:26:31;6.50;99.90
33673;DHT22;20011;51.510;9.942;2024-03-07T06:29:04;6.50;99.90
33673;DHT22;20011;51.510;9.942;2024-03-07T06:31:35;6.50;99.90
33673;DHT22;20011;51.510;9.942;2024-03-07T06:34:01;6.60;99.90
33673;DHT22;20011;51.510;9.942;2024-03-07T06:36:29;6.60;99.90
33673;DHT22;20011;51.510;9.942;2024-03-07T06:38:56;6.70;99.90
33673;DHT22;20011;51.510;9.942;2024-03-07T06:41:23;6.70;99.90
33673;DHT22;20011;51.510;9.942;2024-03-07T06:43:51;6.70;99.90
33673;DHT22;20011;51.510;9.942;2024-03-07T06:46:20;6.80;99.90
33673;DHT22;20011;51.510;9.942;2024-03-07T06:48:46;6.80;99.90
33673;DHT22;20011;51.510;9.942;2024-03-07T06:51:13;6.70;99.90
33673;DHT22;20011;51.510;9.942;2024-03-07T06:53:40;6.70;99.90
33673;DHT22;20011;51.510;9.942;2024-03-07T06:56:07;6.70;99.90
33673;DHT22;20011;51.510;9.942;2024-03-07T06:58:34;6.80;99.90
33673;DHT22;20011;51.510;9.942;2024-03-07T07:01:01;6.90;99.90
33673;DHT22;20011;51.510;9.942;2024-03-07T07:03:33;6.80;99.90
33673;DHT22;20011;51.510;9.942;2024-03-07T07:06:02;6.90;99.90
33673;DHT22;20011;51.510;9.942;2024-03-07T07:08:29;6.90;99.90
33673;DHT22;20011;51.510;9.942;2024-03-07T07:10:56;6.90;99.90
33673;DHT22;20011;51.510;9.942;2024-03-07T07:13:24;6.80;99.90
33673;DHT22;20011;51.510;9.942;2024-03-07T07:15:52;6.80;99.90
33673;DHT22;20011;51.510;9.942;2024-03-07T07:18:20;6.90;99.90
33673;DHT22;20011;51.510;9.942;2024-03-07T07:20:48;7.00;99.90
33673;DHT22;20011;51.510;9.942;2024-03-07T07:23:16;7.20;99.90
33673;DHT22;20011;51.510;9.942;2024-03-07T07:25:43;7.20;99.90
33673;DHT22;20011;51.510;9.942;2024-03-07T07:28:09;7.30;99.90
33673;DHT22;20011;51.510;9.942;2024-03-07T07:30:38;7.20;99.90
33673;DHT22;20011;51.510;9.942;2024-03-07T07:33:08;7.20;99.90
33673;DHT22;20011;51.510;9.942;2024-03-07T07:35:35;7.30;99.90
33673;DHT22;20011;51.510;9.942;2024-03-07T07:38:02;7.30;99.90
33673;DHT22;20011;51.510;9.942;2024-03-07T07:40:29;7.40;99.90
33673;DHT22;20011;51.510;9.942;2024-03-07T07:42:58;7.30;99.90
33673;DHT22;20011;51.510;9.942;2024-03-07T07:45:25;7.40;99.90
33673;DHT22;20011;51.510;9.942;2024-03-07T07:47:53;7.40;99.90
33673;DHT22;20011;51.510;9.942;2024-03-07T07:50:22;7.40;99.90
33673;DHT22;20011;51.510;9.942;2024-03-07T07:52:52;7.50;99.90
33673;DHT22;20011;51.510;9.942;2024-03-07T07:55:21;7.30;99.90
33673;DHT22;20011;51.510;9.942;2024-03-07T07:57:54;7.30;99.90
33673;DHT22;20011;51.510;9.942;2024-03-07T08:00:23;7.40;99.90
33673;DHT22;20011;51.510;9.942;2024-03-07T08:02:55;7.30;99.90
33673;DHT22;20011;51.510;9.942;2024-03-07T08:05:24;7.30;99.90
33673;DHT22;20011;51.510;9.942;2024-03-07T08:07:56;7.40;99.90
33673;DHT22;20011;51.510;9.942;2024-03-07T08:10:25;7.40;99.90
33673;DHT22;20011;51.510;9.942;2024-03-07T08:12:56;7.40;99.90
33673;DHT22;20011;51.510;9.942;2024-03-07T08:15:26;7.30;99.90
33673;DHT22;20011;51.510;9.942;2024-03-07T08:17:55;7.40;99.90
33673;DHT22;20011;51.510;9.942;2024-03-07T08:20:24;7.40;99.90
33673;DHT22;20011;51.510;9.942;2024-03-07T08:22:54;7.40;99.90
33673;DHT22;20011;51.510;9.942;2024-03-07T08:25:26;7.50;99.90
33673;DHT22;20011;51.510;9.942;2024-03-07T08:27:56;7.50;99.90
33673;DHT22;20011;51.510;9.942;2024-03-07T08:30:25;7.50;99.90
33673;DHT22;20011;51.510;9.942;2024-03-07T08:32:55;7.50;99.90
33673;DHT22;20011;51.510;9.942;2024-03-07T08:35:23;7.50;99.90
33673;DHT22;20011;51.510;9.942;2024-03-07T08:37:54;7.60;99.90
33673;DHT22;20011;51.510;9.942;2024-03-07T08:40:27;7.60;99.90
33673;DHT22;20011;51.510;9.942;2024-03-07T08:42:59;7.60;99.90
33673;DHT22;20011;51.510;9.942;2024-03-07T08:45:27;7.60;99.90
33673;DHT22;20011;51.510;9.942;2024-03-07T08:47:55;7.70;99.90
33673;DHT22;20011;51.510;9.942;2024-03-07T08:50:24;7.70;99.90
33673;DHT22;20011;51.510;9.942;2024-03-07T08:52:53;7.90;99.90
33673;DHT22;20011;51.510;9.942;2024-03-07T08:55:22;7.90;99.90
33673;DHT22;20011;51.510;9.942;2024-03-07T08:57:49;7.90;99.90
33673;DHT22;20011;51.510;9.942;2024-03-07T09:00:17;8.00;99.90
33673;DHT22;20011;51.510;9.942;2024-03-07T09:02:55;8.00;99.90
33673;DHT22;20011;51.510;9.942;2024-03-07T09:05:27;8.00;99.90
33673;DHT22;20011;51.510;9.942;2024-03-07T09:07:54;8.10;99.90
33673;DHT22;20011;51.510;9.942;2024-03-07T09:10:22;8.10;99.90
33673;DHT22;20011;51.510;9.942;2024-03-07T09:12:51;8.20;99.90
33673;DHT22;20011;51.510;9.942;2024-03-07T09:15:19;8.20;99.90
33673;DHT22;20011;51.510;9.942;2024-03-07T09:17:48;8.30;99.90
33673;DHT22;20011;51.510;9.942;2024-03-07T09:20:16;8.40;99.90
33673;DHT22;20011;51.510;9.942;2024-03-07T09:22:44;8.50;99.90
33673;DHT22;20011;51.510;9.942;2024-03-07T09:25:11;8.50;99.90
33673;DHT22;20011;51.510;9.942;2024-03-07T09:27:40;8.60;99.90
33673;DHT22;20011;51.510;9.942;2024-03-07T09:30:11;8.70;99.90
33673;DHT22;20011;51.510;9.942;2024-03-07T09:32:50;8.80;99.90
33673;DHT22;20011;51.510;9.942;2024-03-07T09:35:18;8.90;99.90
33673;DHT22;20011;51.510;9.942;2024-03-07T09:37:46;8.90;99.90
33673;DHT22;20011;51.510;9.942;2024-03-07T09:40:13;8.90;99.90
33673;DHT22;20011;51.510;9.942;2024-03-07T09:42:46;8.90;99.90
33673;DHT22;20011;51.510;9.942;2024-03-07T09:45:20;8.90;99.90
33673;DHT22;20011;51.510;9.942;2024-03-07T09:47:50;9.00;99.90
33673;DHT22;20011;51.510;9.942;2024-03-07T09:50:21;9.10;99.90
33673;DHT22;20011;51.510;9.942;2024-03-07T09:52:52;9.00;99.90
33673;DHT22;20011;51.510;9.942;2024-03-07T09:55:21;9.00;99.90
33673;DHT22;20011;51.510;9.942;2024-03-07T09:57:53;9.00;99.90
33673;DHT22;20011;51.510;9.942;2024-03-07T10:00:24;9.00;99.90
33673;DHT22;20011;51.510;9.942;2024-03-07T10:03:13;9.00;99.90
33673;DHT22;20011;51.510;9.942;2024-03-07T10:05:41;9.00;99.90
33673;DHT22;20011;51.510;9.942;2024-03-07T10:08:08;8.90;99.90
33673;DHT22;20011;51.510;9.942;2024-03-07T10:10:37;8.90;99.90
33673;DHT22;20011;51.510;9.942;2024-03-07T10:13:04;8.80;99.90
33673;DHT22;20011;51.510;9.942;2024-03-07T10:15:33;8.80;99.90
33673;DHT22;20011;51.510;9.942;2024-03-07T10:18:01;8.80;99.90
33673;DHT22;20011;51.510;9.942;2024-03-07T10:20:29;8.80;99.90
33673;DHT22;20011;51.510;9.942;2024-03-07T10:22:56;8.90;99.90
33673;DHT22;20011;51.510;9.942;2024-03-07T10:25:24;8.80;99.90
33673;DHT22;20011;51.510;9.942;2024-03-07T10:27:53;8.80;99.90
33673;DHT22;20011;51.510;9.942;2024-03-07T10:30:21;8.90;99.90
33673;DHT22;20011;51.510;9.942;2024-03-07T10:32:55;8.80;99.90
33673;DHT22;20011;51.510;9.942;2024-03-07T10:35:23;8.80;99.90
33673;DHT22;20011;51.510;9.942;2024-03-07T10:37:54;8.90;99.90
33673;DHT22;20011;51.510;9.942;2024-03-07T10:40:22;9.00;99.90
33673;DHT22;20011;51.510;9.942;2024-03-07T10:42:50;9.00;99.90
33673;DHT22;20011;51.510;9.942;2024-03-07T10:45:20;9.00;99.90
33673;DHT22;20011;51.510;9.942;2024-03-07T10:47:53;9.10;99.90
33673;DHT22;20011;51.510;9.942;2024-03-07T10:53:10;9.10;99.90
33673;DHT22;20011;51.510;9.942;2024-03-07T10:56:01;9.10;99.90
33673;DHT22;20011;51.510;9.942;2024-03-07T11:01:37;9.20;99.90
33673;DHT22;20011;51.510;9.942;2024-03-07T11:04:07;9.20;99.90
33673;DHT22;20011;51.510;9.942;2024-03-07T11:06:34;9.10;99.90
33673;DHT22;20011;51.510;9.942;2024-03-07T11:09:03;9.20;99.90
33673;DHT22;20011;51.510;9.942;2024-03-07T11:11:38;9.30;99.90
33673;DHT22;20011;51.510;9.942;2024-03-07T11:14:11;9.30;99.60
33673;DHT22;20011;51.510;9.942;2024-03-07T11:16:41;9.30;98.90
33673;DHT22;20011;51.510;9.942;2024-03-07T11:19:25;9.30;98.80
33673;DHT22;20011;51.510;9.942;2024-03-07T11:21:54;9.30;98.70
33673;DHT22;20011;51.510;9.942;2024-03-07T11:24:30;9.20;98.10
33673;DHT22;20011;51.510;9.942;2024-03-07T11:27:02;9.20;97.70
33673;DHT22;20011;51.510;9.942;2024-03-07T11:29:46;9.20;97.50
33673;DHT22;20011;51.510;9.942;2024-03-07T11:32:15;9.30;97.30
33673;DHT22;20011;51.510;9.942;2024-03-07T11:34:44;9.10;97.60
33673;DHT22;20011;51.510;9.942;2024-03-07T11:40:05;9.10;98.60
33673;DHT22;20011;51.510;9.942;2024-03-07T11:42:48;9.20;98.10
33673;DHT22;20011;51.510;9.942;2024-03-07T11:45:17;9.20;98.30
33673;DHT22;20011;51.510;9.942;2024-03-07T11:47:56;9.20;97.90
33673;DHT22;20011;51.510;9.942;2024-03-07T11:50:40;9.10;97.90
33673;DHT22;20011;51.510;9.942;2024-03-07T11:53:08;9.10;98.30
33673;DHT22;20011;51.510;9.942;2024-03-07T11:55:39;9.10;98.00
33673;DHT22;20011;51.510;9.942;2024-03-07T11:58:13;9.10;97.70
33673;DHT22;20011;51.510;9.942;2024-03-07T12:00:44;9.10;97.70
33673;DHT22;20011;51.510;9.942;2024-03-07T12:03:12;9.20;96.80
33673;DHT22;20011;51.510;9.942;2024-03-07T12:05:40;9.30;96.00
33673;DHT22;20011;51.510;9.942;2024-03-07T12:08:10;9.40;95.70
33673;DHT22;20011;51.510;9.942;2024-03-07T12:10:38;9.40;95.40
33673;DHT22;20011;51.510;9.942;2024-03-07T12:13:06;9.50;94.00
33673;DHT22;20011;51.510;9.942;2024-03-07T12:15:34;9.50;93.40
33673;DHT22;20011;51.510;9.942;2024-03-07T12:18:03;9.60;93.00
33673;DHT22;20011;51.510;9.942;2024-03-07T12:20:30;9.50;92.60
33673;DHT22;20011;51.510;9.942;2024-03-07T12:23:00;9.50;92.00
33673;DHT22;20011;51.510;9.942;2024-03-07T12:25:32;9.40;91.90
33673;DHT22;20011;51.510;9.942;2024-03-07T12:28:07;9.40;91.90
33673;DHT22;20011;51.510;9.942;2024-03-07T12:30:54;9.30;91.90
33673;DHT22;20011;51.510;9.942;2024-03-07T12:33:23;9.40;92.00
33673;DHT22;20011;51.510;9.942;2024-03-07T12:35:54;9.30;92.10
33673;DHT22;20011;51.510;9.942;2024-03-07T12:38:29;9.30;92.40
33673;DHT22;20011;51.510;9.942;2024-03-07T12:41:10;9.40;92.20
33673;DHT22;20011;51.510;9.942;2024-03-07T12:43:42;9.40;91.90
33673;DHT22;20011;51.510;9.942;2024-03-07T12:46:12;9.50;91.30
33673;DHT22;20011;51.510;9.942;2024-03-07T12:48:41;9.40;91.60
33673;DHT22;20011;51.510;9.942;2024-03-07T12:51:11;9.40;91.80
33673;DHT22;20011;51.510;9.942;2024-03-07T12:53:45;9.40;91.30
33673;DHT22;20011;51.510;9.942;2024-03-07T12:56:13;9.30;91.30
33673;DHT22;20011;51.510;9.942;2024-03-07T12:58:47;9.30;90.90
33673;DHT22;20011;51.510;9.942;2024-03-07T13:01:15;9.20;90.50
33673;DHT22;20011;51.510;9.942;2024-03-07T13:03:46;9.20;90.10
33673;DHT22;20011;51.510;9.942;2024-03-07T13:06:14;9.30;90.70
33673;DHT22;20011;51.510;9.942;2024-03-07T13:08:42;9.20;89.60
33673;DHT22;20011;51.510;9.942;2024-03-07T13:11:10;9.20;90.00
33673;DHT22;20011;51.510;9.942;2024-03-07T13:13:38;9.20;90.10
33673;DHT22;20011;51.510;9.942;2024-03-07T13:16:05;9.20;89.50
33673;DHT22;20011;51.510;9.942;2024-03-07T13:18:33;9.20;90.30
33673;DHT22;20011;51.510;9.942;2024-03-07T13:21:02;9.30;90.40
33673;DHT22;20011;51.510;9.942;2024-03-07T13:23:32;9.30;90.30
33673;DHT22;20011;51.510;9.942;2024-03-07T13:26:01;9.30;90.40
33673;DHT22;20011;51.510;9.942;2024-03-07T13:28:29;9.40;89.80
33673;DHT22;20011;51.510;9.942;2024-03-07T13:30:56;9.40;89.10
33673;DHT22;20011;51.510;9.942;2024-03-07T13:33:23;9.30;89.60
33673;DHT22;20011;51.510;9.942;2024-03-07T13:35:52;9.30;90.00
33673;DHT22;20011;51.510;9.942;2024-03-07T13:38:19;9.30;89.30
33673;DHT22;20011;51.510;9.942;2024-03-07T13:40:47;9.20;90.10
33673;DHT22;20011;51.510;9.942;2024-03-07T13:43:16;9.20;90.30
33673;DHT22;20011;51.510;9.942;2024-03-07T13:45:45;9.20;90.40
33673;DHT22;20011;51.510;9.942;2024-03-07T13:48:15;9.30;90.30
33673;DHT22;20011;51.510;9.942;2024-03-07T13:50:44;9.40;90.20
33673;DHT22;20011;51.510;9.942;2024-03-07T13:53:25;9.40;90.10
33673;DHT22;20011;51.510;9.942;2024-03-07T14:03:51;9.50;91.50
33673;DHT22;20011;51.510;9.942;2024-03-07T14:09:57;9.60;90.10
33673;DHT22;20011;51.510;9.942;2024-03-07T14:22:33;9.40;88.20
33673;DHT22;20011;51.510;9.942;2024-03-07T14:31:14;9.40;87.60
33673;DHT22;20011;51.510;9.942;2024-03-07T14:36:38;9.40;86.80
33673;DHT22;20011;51.510;9.942;2024-03-07T14:39:07;9.40;87.00
33673;DHT22;20011;51.510;9.942;2024-03-07T14:44:15;9.40;89.00
33673;DHT22;20011;51.510;9.942;2024-03-07T14:46:43;9.40;87.80
33673;DHT22;20011;51.510;9.942;2024-03-07T14:49:15;9.30;88.00
33673;DHT22;20011;51.510;9.942;2024-03-07T14:51:44;9.40;88.90
33673;DHT22;20011;51.510;9.942;2024-03-07T14:54:26;9.40;88.50
33673;DHT22;20011;51.510;9.942;2024-03-07T14:56:54;9.30;87.70
33673;DHT22;20011;51.510;9.942;2024-03-07T14:59:21;9.30;87.90
33673;DHT22;20011;51.510;9.942;2024-03-07T15:01:49;9.40;88.50
33673;DHT22;20011;51.510;9.942;2024-03-07T15:04:16;9.40;88.10
33673;DHT22;20011;51.510;9.942;2024-03-07T15:06:43;9.40;88.20
33673;DHT22;20011;51.510;9.942;2024-03-07T15:09:11;9.40;88.20
33673;DHT22;20011;51.510;9.942;2024-03-07T15:11:40;9.40;87.40
33673;DHT22;20011;51.510;9.942;2024-03-07T15:14:07;9.30;87.00
33673;DHT22;20011;51.510;9.942;2024-03-07T15:16:38;9.30;86.50
33673;DHT22;20011;51.510;9.942;2024-03-07T15:19:07;9.30;86.90
33673;DHT22;20011;51.510;9.942;2024-03-07T15:21:38;9.20;87.40
33673;DHT22;20011;51.510;9.942;2024-03-07T15:24:07;9.20;87.70
33673;DHT22;20011;51.510;9.942;2024-03-07T15:26:34;9.30;89.10
33673;DHT22;20011;51.510;9.942;2024-03-07T15:29:02;9.20;88.70
33673;DHT22;20011;51.510;9.942;2024-03-07T15:31:29;9.40;88.00
33673;DHT22;20011;51.510;9.942;2024-03-07T15:33:56;9.30;88.70
33673;DHT22;20011;51.510;9.942;2024-03-07T15:36:23;9.30;87.80
33673;DHT22;20011;51.510;9.942;2024-03-07T15:38:52;9.30;88.20
33673;DHT22;20011;51.510;9.942;2024-03-07T15:41:19;9.30;87.90
33673;DHT22;20011;51.510;9.942;2024-03-07T15:43:46;9.10;86.90
33673;DHT22;20011;51.510;9.942;2024-03-07T15:46:14;9.20;87.20
33673;DHT22;20011;51.510;9.942;2024-03-07T15:48:44;9.20;87.30
33673;DHT22;20011;51.510;9.942;2024-03-07T15:51:12;9.20;88.00
33673;DHT22;20011;51.510;9.942;2024-03-07T15:53:41;9.10;88.90
33673;DHT22;20011;51.510;9.942;2024-03-07T15:56:09;9.10;88.80
33673;DHT22;20011;51.510;9.942;2024-03-07T15:58:37;9.10;88.90
33673;DHT22;20011;51.510;9.942;2024-03-07T16:01:04;9.00;88.90
33673;DHT22;20011;51.510;9.942;2024-03-07T16:03:32;9.00;88.80
33673;DHT22;20011;51.510;9.942;2024-03-07T16:05:59;8.90;88.40
33673;DHT22;20011;51.510;9.942;2024-03-07T16:08:26;8.90;88.90
33673;DHT22;20011;51.510;9.942;2024-03-07T16:10:53;8.90;89.50
33673;DHT22;20011;51.510;9.942;2024-03-07T16:13:20;8.90;89.40
33673;DHT22;20011;51.510;9.942;2024-03-07T16:15:48;8.90;89.60
33673;DHT22;20011;51.510;9.942;2024-03-07T16:18:16;8.80;90.00
33673;DHT22;20011;51.510;9.942;2024-03-07T16:20:44;8.90;89.50
33673;DHT22;20011;51.510;9.942;2024-03-07T16:23:15;8.80;89.50
33673;DHT22;20011;51.510;9.942;2024-03-07T16:25:43;8.80;90.00
33673;DHT22;20011;51.510;9.942;2024-03-07T16:28:11;8.90;90.40
33673;DHT22;20011;51.510;9.942;2024-03-07T16:30:39;8.80;90.10
33673;DHT22;20011;51.510;9.942;2024-03-07T16:33:12;8.80;90.10
33673;DHT22;20011;51.510;9.942;2024-03-07T16:35:42;8.90;89.90
33673;DHT22;20011;51.510;9.942;2024-03-07T16:38:11;8.80;89.30